createdAt,value
2017-01-02T00:00:26.051Z,24.91
2017-01-02T00:01:26.060Z,24.88
2017-01-02T00:02:26.115Z,24.9
2017-01-02T00:03:26.524Z,24.8
2017-01-02T00:04:26.374Z,24.95
2017-01-02T00:05:26.037Z,24.91
2017-01-02T00:06:26.043Z,24.9
2017-01-02T00:07:27.504Z,24.84
2017-01-02T00:08:26.063Z,24.9
2017-01-02T00:09:26.517Z,24.84
2017-01-02T00:10:26.467Z,24.87
2017-01-02T00:11:26.131Z,24.85
2017-01-02T00:12:26.138Z,24.95
2017-01-02T00:13:26.487Z,24.81
2017-01-02T00:14:26.106Z,24.85
2017-01-02T00:15:26.504Z,24.95
2017-01-02T00:16:25.669Z,24.85
2017-01-02T00:17:26.120Z,24.88
2017-01-02T00:18:27.459Z,24.85
2017-01-02T00:19:26.781Z,24.84
2017-01-02T00:20:26.799Z,24.87
2017-01-02T00:21:26.593Z,24.84
2017-01-02T00:22:26.558Z,24.95
2017-01-02T00:23:26.193Z,24.81
2017-01-02T00:24:26.120Z,24.87
2017-01-02T00:25:26.127Z,24.83
2017-01-02T00:26:26.135Z,24.85
2017-01-02T00:27:26.542Z,24.9
2017-01-02T00:28:26.546Z,24.9
2017-01-02T00:29:26.254Z,24.85
2017-01-02T00:30:25.821Z,24.83
2017-01-02T00:31:26.962Z,24.88
2017-01-02T00:32:26.226Z,24.85
2017-01-02T00:33:26.683Z,24.87
2017-01-02T00:34:26.643Z,24.81
2017-01-02T00:35:26.201Z,24.83
2017-01-02T00:36:26.230Z,24.9
2017-01-02T00:37:26.638Z,24.95
2017-01-02T00:38:26.667Z,24.8
2017-01-02T00:39:26.282Z,24.87
2017-01-02T00:40:26.685Z,24.85
2017-01-02T00:41:26.689Z,24.98
2017-01-02T00:42:27.299Z,24.9
2017-01-02T00:43:25.860Z,24.84
2017-01-02T00:44:26.966Z,24.98
2017-01-02T00:45:26.319Z,24.84
2017-01-02T00:46:26.282Z,24.83
2017-01-02T00:47:26.336Z,24.93
2017-01-02T00:48:26.346Z,24.93
2017-01-02T00:49:25.903Z,24.98
2017-01-02T00:50:26.706Z,24.84
2017-01-02T00:51:25.966Z,24.98
2017-01-02T00:52:26.319Z,25
2017-01-02T00:53:27.652Z,24.93
2017-01-02T00:54:26.483Z,24.91
2017-01-02T00:55:27.147Z,24.95
2017-01-02T00:56:26.797Z,24.98
2017-01-02T00:57:26.799Z,24.98
2017-01-02T00:58:26.073Z,24.84
2017-01-02T00:59:26.766Z,24.87
2017-01-02T01:00:26.834Z,24.9
2017-01-02T01:01:26.041Z,24.95
2017-01-02T01:02:26.543Z,24.85
2017-01-02T01:03:26.950Z,24.95
2017-01-02T01:04:26.011Z,24.87
2017-01-02T01:05:26.463Z,24.85
2017-01-02T01:06:27.575Z,24.9
2017-01-02T01:07:26.428Z,24.87
2017-01-02T01:08:26.493Z,24.9
2017-01-02T01:09:26.838Z,24.99
2017-01-02T01:10:26.897Z,24.96
2017-01-02T01:11:26.456Z,24.91
2017-01-02T01:12:26.120Z,24.88
2017-01-02T01:13:26.631Z,24.85
2017-01-02T01:14:26.488Z,24.95
2017-01-02T01:15:27.902Z,24.87
2017-01-02T01:16:26.494Z,24.83
2017-01-02T01:17:27.647Z,24.91
2017-01-02T01:18:26.556Z,24.9
2017-01-02T01:19:26.170Z,24.84
2017-01-02T01:20:26.175Z,24.91
2017-01-02T01:21:26.528Z,24.9
2017-01-02T01:22:26.585Z,24.98
2017-01-02T01:23:26.199Z,24.96
2017-01-02T01:24:26.998Z,25.03
2017-01-02T01:25:26.162Z,25.03
2017-01-02T01:26:26.613Z,24.87
2017-01-02T01:27:26.229Z,24.85
2017-01-02T01:28:27.689Z,24.88
2017-01-02T01:29:27.031Z,24.87
2017-01-02T01:30:27.085Z,24.88
2017-01-02T01:31:27.045Z,24.85
2017-01-02T01:32:26.607Z,24.9
2017-01-02T01:33:26.267Z,24.93
2017-01-02T01:34:26.228Z,24.95
2017-01-02T01:35:27.140Z,24.99
2017-01-02T01:36:27.031Z,24.95
2017-01-02T01:37:27.040Z,24.96
2017-01-02T01:38:27.195Z,24.93
2017-01-02T01:39:28.205Z,25
2017-01-02T01:40:26.818Z,24.9
2017-01-02T01:41:26.668Z,24.96
2017-01-02T01:42:26.680Z,24.93
2017-01-02T01:43:26.735Z,24.91
2017-01-02T01:44:27.135Z,24.95
2017-01-02T01:45:26.801Z,24.84
2017-01-02T01:46:26.910Z,24.9
2017-01-02T01:47:27.112Z,24.91
2017-01-02T01:48:26.770Z,24.91
2017-01-02T01:49:27.182Z,24.85
2017-01-02T01:50:28.291Z,24.99
2017-01-02T01:51:26.750Z,24.98
2017-01-02T01:52:26.851Z,24.87
2017-01-02T01:53:27.202Z,25
2017-01-02T01:54:26.817Z,24.88
2017-01-02T01:55:26.730Z,24.83
2017-01-02T01:56:27.226Z,24.87
2017-01-02T01:57:27.782Z,24.88
2017-01-02T01:58:27.242Z,24.98
2017-01-02T01:59:27.297Z,24.91
2017-01-02T02:00:26.913Z,25
2017-01-02T02:01:27.118Z,25.03
2017-01-02T02:02:26.825Z,24.93
2017-01-02T02:03:27.276Z,24.98
2017-01-02T02:04:27.584Z,24.85
2017-01-02T02:05:26.895Z,24.87
2017-01-02T02:06:27.246Z,24.9
2017-01-02T02:07:26.513Z,25
2017-01-02T02:08:27.966Z,24.91
2017-01-02T02:09:26.930Z,24.8
2017-01-02T02:10:27.735Z,24.87
2017-01-02T02:11:26.942Z,24.84
2017-01-02T02:12:26.502Z,24.98
2017-01-02T02:13:27.300Z,24.88
2017-01-02T02:14:27.305Z,24.9
2017-01-02T02:15:26.523Z,24.95
2017-01-02T02:16:26.630Z,24.93
2017-01-02T02:17:27.431Z,24.98
2017-01-02T02:18:26.935Z,24.95
2017-01-02T02:19:27.932Z,24.99
2017-01-02T02:20:27.001Z,24.84
2017-01-02T02:21:27.659Z,24.85
2017-01-02T02:22:27.514Z,24.8
2017-01-02T02:23:26.973Z,24.95
2017-01-02T02:24:27.377Z,24.84
2017-01-02T02:25:27.037Z,24.96
2017-01-02T02:26:27.391Z,24.87
2017-01-02T02:27:26.606Z,24.87
2017-01-02T02:28:27.059Z,25
2017-01-02T02:29:26.669Z,24.98
2017-01-02T02:30:27.032Z,24.93
2017-01-02T02:31:27.030Z,24.91
2017-01-02T02:32:28.188Z,24.84
2017-01-02T02:33:27.442Z,25.03
2017-01-02T02:34:27.102Z,24.9
2017-01-02T02:35:27.113Z,24.88
2017-01-02T02:36:27.067Z,24.93
2017-01-02T02:37:27.520Z,24.83
2017-01-02T02:38:27.130Z,24.83
2017-01-02T02:39:27.484Z,24.85
2017-01-02T02:40:27.542Z,24.84
2017-01-02T02:41:27.498Z,24.85
2017-01-02T02:42:27.565Z,24.84
2017-01-02T02:43:28.470Z,24.83
2017-01-02T02:44:27.124Z,24.87
2017-01-02T02:45:27.131Z,24.88
2017-01-02T02:46:27.137Z,24.87
2017-01-02T02:47:27.593Z,24.85
2017-01-02T02:48:27.154Z,24.84
2017-01-02T02:49:27.213Z,24.83
2017-01-02T02:50:27.216Z,24.85
2017-01-02T02:51:27.572Z,24.78
2017-01-02T02:52:27.183Z,24.84
2017-01-02T02:53:27.341Z,24.83
2017-01-02T02:54:28.700Z,24.83
2017-01-02T02:55:27.600Z,24.87
2017-01-02T02:56:27.657Z,24.95
2017-01-02T02:57:27.216Z,24.93
2017-01-02T02:58:27.327Z,24.87
2017-01-02T02:59:27.282Z,24.98
2017-01-02T03:00:27.388Z,24.84
2017-01-02T03:01:27.649Z,24.87
2017-01-02T03:02:27.301Z,24.85
2017-01-02T03:03:27.068Z,24.88
2017-01-02T03:04:26.918Z,24.81
2017-01-02T03:05:28.877Z,24.8
2017-01-02T03:06:26.936Z,24.84
2017-01-02T03:07:27.340Z,24.93
2017-01-02T03:08:27.743Z,24.85
2017-01-02T03:09:27.402Z,24.85
2017-01-02T03:10:27.361Z,24.88
2017-01-02T03:11:26.972Z,24.91
2017-01-02T03:12:27.374Z,24.85
2017-01-02T03:13:27.336Z,24.9
2017-01-02T03:14:27.390Z,24.81
2017-01-02T03:15:27.745Z,24.87
2017-01-02T03:16:27.007Z,24.85
2017-01-02T03:17:27.362Z,24.9
2017-01-02T03:18:27.373Z,24.88
2017-01-02T03:19:27.473Z,24.84
2017-01-02T03:20:27.530Z,24.88
2017-01-02T03:21:27.489Z,24.85
2017-01-02T03:22:27.790Z,24.8
2017-01-02T03:23:27.455Z,24.83
2017-01-02T03:24:27.458Z,24.87
2017-01-02T03:25:27.566Z,24.83
2017-01-02T03:26:27.429Z,24.87
2017-01-02T03:27:27.085Z,24.84
2017-01-02T03:29:27.840Z,24.84
2017-01-02T03:30:27.450Z,24.84
2017-01-02T03:31:27.061Z,24.88
2017-01-02T03:32:27.862Z,24.84
2017-01-02T03:33:27.522Z,24.83
2017-01-02T03:34:27.527Z,24.84
2017-01-02T03:35:27.096Z,24.88
2017-01-02T03:36:28.250Z,24.84
2017-01-02T03:37:27.505Z,24.84
2017-01-02T03:38:27.613Z,24.91
2017-01-02T03:39:27.121Z,24.87
2017-01-02T03:40:27.824Z,24.87
2017-01-02T03:41:27.181Z,24.84
2017-01-02T03:42:28.035Z,24.96
2017-01-02T03:43:27.937Z,24.83
2017-01-02T03:44:27.208Z,24.85
2017-01-02T03:45:28.003Z,24.83
2017-01-02T03:46:27.722Z,24.88
2017-01-02T03:47:28.379Z,24.87
2017-01-02T03:48:27.234Z,24.9
2017-01-02T03:49:27.583Z,24.93
2017-01-02T03:50:27.619Z,24.98
2017-01-02T03:51:27.997Z,24.84
2017-01-02T03:52:28.100Z,24.81
2017-01-02T03:53:27.663Z,24.84
2017-01-02T03:54:28.023Z,24.83
2017-01-02T03:55:27.282Z,24.83
2017-01-02T03:56:28.037Z,24.91
2017-01-02T03:57:27.715Z,24.88
2017-01-02T03:58:28.553Z,24.84
2017-01-02T03:59:27.688Z,24.84
2017-01-02T04:00:27.864Z,24.83
2017-01-02T04:01:28.067Z,24.8
2017-01-02T04:02:27.728Z,24.83
2017-01-02T04:03:27.737Z,24.73
2017-01-02T04:04:27.796Z,24.71
2017-01-02T04:05:28.145Z,24.81
2017-01-02T04:06:27.756Z,24.83
2017-01-02T04:07:28.160Z,24.84
2017-01-02T04:08:27.770Z,24.83
2017-01-02T04:09:28.981Z,24.87
2017-01-02T04:10:27.403Z,24.91
2017-01-02T04:11:28.290Z,24.84
2017-01-02T04:12:27.758Z,24.81
2017-01-02T04:13:27.510Z,24.88
2017-01-02T04:14:28.164Z,24.9
2017-01-02T04:15:27.871Z,24.85
2017-01-02T04:16:28.228Z,24.77
2017-01-02T04:17:27.787Z,24.87
2017-01-02T04:18:27.800Z,24.83
2017-01-02T04:19:27.849Z,24.84
2017-01-02T04:20:29.356Z,24.68
2017-01-02T04:21:28.259Z,24.83
2017-01-02T04:22:28.119Z,24.71
2017-01-02T04:23:27.462Z,24.76
2017-01-02T04:24:27.835Z,24.73
2017-01-02T04:25:27.502Z,24.73
2017-01-02T04:26:28.297Z,24.83
2017-01-02T04:27:28.252Z,24.8
2017-01-02T04:28:27.916Z,24.73
2017-01-02T04:29:27.977Z,24.69
2017-01-02T04:30:27.529Z,24.76
2017-01-02T04:31:29.700Z,24.83
2017-01-02T04:32:27.493Z,24.8
2017-01-02T04:33:28.604Z,24.83
2017-01-02T04:34:27.956Z,24.81
2017-01-02T04:35:27.913Z,24.81
2017-01-02T04:36:28.518Z,24.8
2017-01-02T04:37:27.979Z,24.73
2017-01-02T04:38:27.594Z,24.8
2017-01-02T04:39:28.386Z,24.73
2017-01-02T04:40:28.492Z,24.8
2017-01-02T04:41:27.964Z,24.83
2017-01-02T04:42:27.968Z,24.69
2017-01-02T04:43:28.020Z,24.83
2017-01-02T04:44:29.320Z,24.83
2017-01-02T04:45:27.982Z,24.81
2017-01-02T04:46:28.434Z,24.8
2017-01-02T04:47:28.442Z,24.8
2017-01-02T04:48:28.002Z,24.81
2017-01-02T04:49:27.622Z,24.78
2017-01-02T04:50:28.471Z,24.83
2017-01-02T04:51:28.076Z,24.81
2017-01-02T04:52:28.087Z,24.83
2017-01-02T04:53:28.440Z,24.84
2017-01-02T04:54:27.701Z,24.87
2017-01-02T04:55:29.470Z,24.78
2017-01-02T04:56:28.114Z,24.84
2017-01-02T04:57:28.517Z,24.83
2017-01-02T04:58:57.487Z,24.81
2017-01-02T04:59:28.184Z,24.83
2017-01-02T05:00:28.090Z,24.84
2017-01-02T05:01:27.701Z,24.78
2017-01-02T05:02:28.100Z,24.81
2017-01-02T05:03:28.161Z,24.81
2017-01-02T05:04:27.773Z,24.84
2017-01-02T05:05:28.171Z,24.71
2017-01-02T05:06:28.185Z,24.83
2017-01-02T05:07:28.534Z,24.84
2017-01-02T05:08:28.145Z,24.84
2017-01-02T05:09:28.603Z,24.81
2017-01-02T05:10:28.607Z,24.9
2017-01-02T05:11:28.219Z,24.84
2017-01-02T05:12:28.173Z,24.96
2017-01-02T05:13:27.836Z,24.83
2017-01-02T05:14:28.186Z,24.84
2017-01-02T05:15:28.498Z,24.9
2017-01-02T05:16:28.204Z,24.78
2017-01-02T05:17:28.259Z,24.83
2017-01-02T05:18:28.613Z,24.83
2017-01-02T05:19:28.324Z,24.87
2017-01-02T05:20:27.839Z,24.91
2017-01-02T05:21:28.240Z,24.78
2017-01-02T05:22:28.311Z,24.84
2017-01-02T05:23:28.661Z,24.85
2017-01-02T05:24:28.805Z,24.84
2017-01-02T05:25:28.714Z,24.9
2017-01-02T05:26:29.171Z,24.81
2017-01-02T05:27:28.186Z,24.83
2017-01-02T05:28:44.667Z,24.83
2017-01-02T05:29:28.343Z,24.69
2017-01-02T05:30:28.748Z,24.81
2017-01-02T05:31:28.314Z,24.73
2017-01-02T05:32:28.764Z,24.76
2017-01-02T05:33:27.975Z,24.73
2017-01-02T05:34:28.829Z,24.67
2017-01-02T05:35:28.440Z,24.73
2017-01-02T05:36:28.395Z,24.69
2017-01-02T05:37:29.646Z,24.81
2017-01-02T05:38:28.359Z,24.76
2017-01-02T05:39:29.162Z,24.76
2017-01-02T05:40:28.421Z,24.71
2017-01-02T05:41:28.480Z,24.73
2017-01-02T05:42:28.044Z,24.71
2017-01-02T05:43:28.099Z,24.71
2017-01-02T05:44:28.507Z,24.8
2017-01-02T05:45:28.457Z,24.71
2017-01-02T05:46:28.419Z,24.69
2017-01-02T05:47:28.869Z,24.69
2017-01-02T05:48:28.432Z,24.68
2017-01-02T05:49:28.143Z,24.76
2017-01-02T05:50:29.844Z,24.76
2017-01-02T05:51:28.506Z,24.81
2017-01-02T05:52:28.510Z,24.69
2017-01-02T05:53:28.469Z,24.67
2017-01-02T05:54:28.078Z,24.73
2017-01-02T05:55:28.531Z,24.71
2017-01-02T05:56:28.488Z,24.78
2017-01-02T05:57:28.594Z,24.73
2017-01-02T05:58:29.903Z,24.78
2017-01-02T05:59:28.510Z,24.68
2017-01-02T06:00:28.968Z,24.78
2017-01-02T06:01:30.028Z,24.76
2017-01-02T06:02:28.530Z,24.8
2017-01-02T06:03:28.540Z,24.71
2017-01-02T06:04:28.647Z,24.73
2017-01-02T06:05:28.555Z,24.73
2017-01-02T06:06:28.215Z,24.81
2017-01-02T06:07:29.067Z,24.67
2017-01-02T06:08:28.975Z,24.77
2017-01-02T06:09:28.974Z,24.83
2017-01-02T06:10:28.795Z,24.71
2017-01-02T06:11:28.701Z,24.8
2017-01-02T06:12:30.578Z,24.81
2017-01-02T06:13:28.610Z,24.69
2017-01-02T06:14:28.614Z,24.81
2017-01-02T06:15:28.672Z,24.77
2017-01-02T06:16:29.126Z,24.76
2017-01-02T06:17:28.690Z,24.76
2017-01-02T06:18:29.042Z,24.68
2017-01-02T06:19:28.701Z,24.81
2017-01-02T06:20:28.660Z,24.81
2017-01-02T06:21:28.866Z,24.81
2017-01-02T06:22:28.726Z,24.69
2017-01-02T06:23:30.700Z,24.71
2017-01-02T06:24:28.736Z,24.73
2017-01-02T06:25:28.302Z,24.69
2017-01-02T06:26:28.356Z,24.76
2017-01-02T06:27:28.757Z,24.81
2017-01-02T06:28:28.767Z,24.73
2017-01-02T06:29:28.374Z,24.73
2017-01-02T06:30:29.176Z,24.71
2017-01-02T06:31:28.789Z,24.73
2017-01-02T06:32:29.142Z,24.77
2017-01-02T06:33:29.252Z,24.78
2017-01-02T06:34:28.755Z,24.77
2017-01-02T06:35:28.788Z,24.69
2017-01-02T06:36:29.171Z,24.71
2017-01-02T06:37:28.780Z,24.81
2017-01-02T06:38:28.445Z,24.81
2017-01-02T06:39:28.845Z,24.83
2017-01-02T06:40:28.800Z,24.85
2017-01-02T06:41:28.858Z,24.78
2017-01-02T06:42:28.426Z,24.83
2017-01-02T06:43:29.470Z,24.73
2017-01-02T06:44:28.534Z,24.69
2017-01-02T06:45:28.881Z,24.83
2017-01-02T06:46:28.894Z,24.83
2017-01-02T06:47:29.315Z,24.85
2017-01-02T06:48:28.908Z,24.81
2017-01-02T06:49:28.966Z,24.9
2017-01-02T06:50:29.391Z,24.78
2017-01-02T06:51:28.931Z,24.81
2017-01-02T06:52:28.885Z,24.9
2017-01-02T06:53:28.944Z,24.81
2017-01-02T06:54:30.496Z,24.85
2017-01-02T06:55:28.958Z,24.83
2017-01-02T06:56:29.810Z,24.85
2017-01-02T06:57:28.576Z,24.87
2017-01-02T06:58:28.926Z,24.91
2017-01-02T06:59:29.430Z,24.85
2017-01-02T07:00:28.991Z,24.98
2017-01-02T07:01:29.398Z,24.9
2017-01-02T07:02:29.056Z,24.81
2017-01-02T07:03:29.659Z,24.78
2017-01-02T07:04:28.972Z,24.87
2017-01-02T07:05:30.902Z,24.83
2017-01-02T07:06:28.986Z,24.83
2017-01-02T07:07:30.139Z,24.76
2017-01-02T07:08:28.605Z,24.78
2017-01-02T07:09:29.056Z,24.78
2017-01-02T07:10:28.669Z,24.8
2017-01-02T07:11:29.421Z,24.73
2017-01-02T07:12:28.737Z,24.77
2017-01-02T07:13:29.431Z,24.76
2017-01-02T07:14:29.041Z,24.73
2017-01-02T07:15:29.446Z,24.81
2017-01-02T07:16:28.713Z,24.8
2017-01-02T07:17:29.069Z,24.87
2017-01-02T07:18:30.521Z,24.71
2017-01-02T07:19:29.139Z,24.77
2017-01-02T07:20:29.087Z,24.78
2017-01-02T07:21:29.099Z,24.69
2017-01-02T07:22:28.730Z,24.8
2017-01-02T07:23:29.160Z,24.8
2017-01-02T07:24:28.717Z,24.77
2017-01-02T07:25:29.471Z,24.78
2017-01-02T07:26:29.183Z,24.78
2017-01-02T07:27:29.138Z,24.8
2017-01-02T07:28:29.592Z,24.8
2017-01-02T07:29:29.154Z,24.85
2017-01-02T07:30:29.708Z,25.02
2017-01-02T07:31:29.466Z,25.08
2017-01-02T07:32:29.172Z,25.13
2017-01-02T07:33:29.232Z,25.46
2017-01-02T07:34:29.188Z,25.45
2017-01-02T07:35:29.215Z,25.55
2017-01-02T07:36:29.851Z,25.7
2017-01-02T07:37:29.311Z,25.82
2017-01-02T07:38:29.265Z,26.01
2017-01-02T07:39:29.324Z,26.07
2017-01-02T07:40:29.230Z,26.18
2017-01-02T07:41:28.843Z,26.28
2017-01-02T07:42:28.896Z,26.37
2017-01-02T07:43:29.695Z,26.45
2017-01-02T07:44:28.865Z,26.5
2017-01-02T07:45:28.969Z,26.63
2017-01-02T07:46:29.721Z,26.66
2017-01-02T07:47:30.882Z,26.89
2017-01-02T07:48:28.943Z,26.87
2017-01-02T07:49:30.098Z,26.99
2017-01-02T07:50:29.798Z,26.95
2017-01-02T07:51:29.759Z,27.03
2017-01-02T07:52:29.051Z,27.1
2017-01-02T07:53:29.030Z,27.07
2017-01-02T07:54:29.727Z,27.1
2017-01-02T07:55:29.391Z,27.04
2017-01-02T07:56:29.744Z,27.09
2017-01-02T07:57:29.457Z,27.09
2017-01-02T07:58:30.670Z,27.1
2017-01-02T07:59:28.975Z,27.24
2017-01-02T08:00:30.131Z,27.25
2017-01-02T08:01:29.462Z,27.29
2017-01-02T08:02:29.788Z,27.36
2017-01-02T08:03:29.452Z,27.43
2017-01-02T08:04:29.460Z,27.27
2017-01-02T08:05:29.864Z,27.34
2017-01-02T08:06:29.476Z,27.41
2017-01-02T08:07:29.432Z,27.31
2017-01-02T08:08:29.046Z,27.41
2017-01-02T08:09:29.450Z,27.31
2017-01-02T08:10:29.901Z,27.4
2017-01-02T08:11:30.725Z,27.41
2017-01-02T08:12:29.519Z,27.47
2017-01-02T08:13:30.429Z,27.46
2017-01-02T08:14:29.540Z,27.43
2017-01-02T08:15:29.149Z,27.46
2017-01-02T08:16:29.505Z,27.49
2017-01-02T08:17:29.511Z,27.46
2017-01-02T08:18:29.520Z,27.5
2017-01-02T08:19:29.629Z,27.51
2017-01-02T08:20:29.538Z,27.5
2017-01-02T08:21:29.941Z,27.51
2017-01-02T08:22:30.805Z,27.63
2017-01-02T08:23:29.607Z,27.47
2017-01-02T08:24:30.615Z,27.43
2017-01-02T08:25:29.574Z,27.5
2017-01-02T08:26:29.287Z,27.41
2017-01-02T08:27:29.247Z,27.47
2017-01-02T08:28:29.698Z,27.44
2017-01-02T08:29:29.655Z,27.43
2017-01-02T08:30:30.059Z,27.47
2017-01-02T08:31:29.526Z,27.59
2017-01-02T08:32:29.655Z,27.51
2017-01-02T08:33:29.241Z,27.51
2017-01-02T08:34:30.040Z,27.49
2017-01-02T08:35:29.671Z,27.4
2017-01-02T08:36:29.266Z,27.39
2017-01-02T08:37:30.072Z,27.44
2017-01-02T08:38:30.126Z,27.43
2017-01-02T08:39:30.082Z,27.55
2017-01-02T08:40:29.793Z,27.49
2017-01-02T08:41:29.752Z,27.47
2017-01-02T08:42:30.025Z,27.43
2017-01-02T08:43:29.817Z,27.4
2017-01-02T08:44:29.829Z,27.28
2017-01-02T08:45:30.132Z,27.25
2017-01-02T08:46:29.793Z,27.44
2017-01-02T08:47:29.800Z,27.29
2017-01-02T08:48:30.183Z,27.34
2017-01-02T08:49:29.820Z,27.25
2017-01-02T08:50:30.320Z,27.28
2017-01-02T08:51:30.229Z,27.36
2017-01-02T08:52:29.846Z,27.43
2017-01-02T08:53:30.648Z,27.43
2017-01-02T08:54:30.204Z,27.39
2017-01-02T08:55:29.923Z,27.34
2017-01-02T08:56:29.429Z,27.34
2017-01-02T08:57:30.266Z,27.41
2017-01-02T08:58:29.913Z,27.39
2017-01-02T08:59:29.853Z,27.57
2017-01-02T09:00:29.461Z,27.4
2017-01-02T09:01:29.920Z,27.29
2017-01-02T09:02:29.529Z,27.31
2017-01-02T09:03:30.377Z,27.27
2017-01-02T09:04:30.594Z,27.13
2017-01-02T09:05:29.553Z,27.32
2017-01-02T09:06:30.353Z,27.39
2017-01-02T09:07:29.518Z,27.24
2017-01-02T09:08:30.372Z,27.31
2017-01-02T09:09:30.333Z,27.32
2017-01-02T09:10:30.351Z,27.4
2017-01-02T09:11:30.046Z,27.4
2017-01-02T09:12:30.056Z,27.55
2017-01-02T09:13:29.567Z,27.54
2017-01-02T09:14:29.622Z,27.55
2017-01-02T09:15:30.990Z,27.55
2017-01-02T09:16:30.385Z,27.54
2017-01-02T09:17:30.844Z,27.5
2017-01-02T09:18:30.015Z,27.57
2017-01-02T09:19:30.458Z,27.55
2017-01-02T09:20:30.076Z,27.5
2017-01-02T09:21:29.733Z,27.51
2017-01-02T09:22:30.086Z,27.54
2017-01-02T09:23:30.491Z,27.51
2017-01-02T09:24:30.755Z,27.49
2017-01-02T09:25:30.162Z,27.54
2017-01-02T09:26:29.726Z,27.59
2017-01-02T09:27:30.079Z,27.51
2017-01-02T09:28:31.135Z,27.51
2017-01-02T09:29:30.494Z,27.55
2017-01-02T09:30:30.549Z,27.55
2017-01-02T09:31:30.263Z,27.47
2017-01-02T09:32:30.167Z,27.5
2017-01-02T09:33:30.624Z,27.59
2017-01-02T09:34:30.187Z,27.65
2017-01-02T09:35:30.994Z,27.55
2017-01-02T09:36:30.250Z,27.55
2017-01-02T09:37:30.210Z,27.7
2017-01-02T09:38:30.565Z,27.87
2017-01-02T09:39:31.690Z,27.74
2017-01-02T09:40:30.232Z,27.74
2017-01-02T09:41:29.848Z,27.75
2017-01-02T09:42:29.856Z,27.72
2017-01-02T09:43:30.258Z,27.72
2017-01-02T09:44:30.661Z,27.69
2017-01-02T09:45:29.980Z,27.82
2017-01-02T09:46:30.682Z,27.79
2017-01-02T09:47:30.647Z,27.66
2017-01-02T09:48:30.257Z,27.65
2017-01-02T09:49:30.758Z,27.51
2017-01-02T09:50:30.268Z,27.63
2017-01-02T09:51:30.725Z,27.65
2017-01-02T09:52:30.384Z,27.65
2017-01-02T09:53:30.299Z,27.57
2017-01-02T09:54:30.347Z,27.72
2017-01-02T09:55:30.361Z,27.57
2017-01-02T09:56:30.715Z,27.62
2017-01-02T09:57:30.726Z,27.51
2017-01-02T09:58:30.485Z,27.39
2017-01-02T09:59:30.697Z,27.4
2017-01-02T10:00:30.455Z,27.7
2017-01-02T10:01:30.362Z,27.63
2017-01-02T10:02:30.403Z,27.5
2017-01-02T10:03:30.428Z,27.63
2017-01-02T10:04:30.881Z,27.7
2017-01-02T10:05:29.999Z,27.67
2017-01-02T10:06:30.504Z,27.59
2017-01-02T10:07:30.067Z,27.51
2017-01-02T10:08:30.816Z,27.36
2017-01-02T10:09:30.923Z,27.36
2017-01-02T10:10:31.030Z,27.4
2017-01-02T10:11:30.846Z,27.65
2017-01-02T10:12:30.557Z,27.59
2017-01-02T10:13:30.462Z,27.55
2017-01-02T10:14:30.123Z,27.54
2017-01-02T10:15:30.875Z,27.51
2017-01-02T10:16:30.490Z,27.36
2017-01-02T10:17:30.149Z,27.44
2017-01-02T10:18:30.157Z,27.39
2017-01-02T10:19:30.512Z,27.5
2017-01-02T10:20:30.921Z,27.41
2017-01-02T10:21:31.405Z,27.39
2017-01-02T10:22:30.541Z,27.51
2017-01-02T10:23:30.744Z,27.41
2017-01-02T10:24:30.952Z,27.44
2017-01-02T10:25:30.166Z,27.5
2017-01-02T10:26:30.276Z,27.44
2017-01-02T10:27:31.079Z,27.39
2017-01-02T10:28:31.033Z,27.4
2017-01-02T10:29:30.647Z,27.44
2017-01-02T10:30:30.258Z,27.5
2017-01-02T10:31:31.010Z,27.51
2017-01-02T10:32:31.975Z,27.49
2017-01-02T10:33:31.029Z,27.46
2017-01-02T10:34:31.386Z,27.54
2017-01-02T10:35:30.699Z,27.49
2017-01-02T10:36:30.705Z,27.36
2017-01-02T10:37:30.714Z,27.44
2017-01-02T10:38:30.280Z,27.4
2017-01-02T10:39:31.129Z,27.49
2017-01-02T10:40:30.739Z,27.49
2017-01-02T10:41:31.196Z,27.41
2017-01-02T10:42:30.708Z,27.43
2017-01-02T10:43:32.524Z,27.5
2017-01-02T10:44:30.725Z,27.41
2017-01-02T10:45:31.418Z,27.34
2017-01-02T10:46:31.140Z,27.46
2017-01-02T10:47:30.751Z,27.37
2017-01-02T10:48:30.856Z,27.54
2017-01-02T10:49:30.814Z,27.39
2017-01-02T10:50:30.875Z,27.6
2017-01-02T10:51:31.180Z,27.55
2017-01-02T10:52:30.794Z,27.5
2017-01-02T10:53:30.453Z,27.39
2017-01-02T10:54:30.856Z,27.41
2017-01-02T10:55:31.317Z,27.29
2017-01-02T10:56:31.823Z,27.28
2017-01-02T10:57:30.880Z,27.43
2017-01-02T10:58:30.894Z,27.41
2017-01-02T10:59:30.850Z,27.39
2017-01-02T11:00:31.307Z,27.36
2017-01-02T11:01:30.865Z,27.34
2017-01-02T11:02:30.528Z,27.24
2017-01-02T11:03:30.931Z,27.34
2017-01-02T11:04:31.287Z,27.41
2017-01-02T11:05:30.905Z,27.39
2017-01-02T11:06:31.207Z,27.43
2017-01-02T11:07:30.620Z,27.41
2017-01-02T11:08:30.975Z,27.4
2017-01-02T11:09:30.931Z,27.49
2017-01-02T11:10:30.941Z,27.57
2017-01-02T11:11:30.945Z,27.51
2017-01-02T11:12:30.960Z,27.63
2017-01-02T11:13:31.411Z,27.7
2017-01-02T11:14:31.025Z,27.62
2017-01-02T11:15:30.980Z,27.51
2017-01-02T11:16:31.243Z,27.5
2017-01-02T11:17:31.052Z,27.66
2017-01-02T11:18:31.003Z,27.78
2017-01-02T11:19:30.622Z,27.69
2017-01-02T11:20:31.020Z,27.77
2017-01-02T11:21:31.044Z,27.67
2017-01-02T11:22:30.692Z,27.75
2017-01-02T11:23:31.493Z,27.72
2017-01-02T11:24:31.500Z,27.66
2017-01-02T11:25:31.611Z,27.69
2017-01-02T11:26:31.073Z,27.65
2017-01-02T11:27:32.033Z,27.67
2017-01-02T11:28:31.488Z,27.7
2017-01-02T11:29:31.252Z,27.77
2017-01-02T11:30:31.257Z,27.81
2017-01-02T11:31:31.165Z,27.88
2017-01-02T11:32:31.122Z,27.77
2017-01-02T11:33:31.181Z,27.66
2017-01-02T11:34:31.139Z,27.63
2017-01-02T11:35:31.597Z,27.69
2017-01-02T11:36:31.607Z,27.59
2017-01-02T11:37:31.216Z,27.6
2017-01-02T11:38:31.951Z,27.82
2017-01-02T11:39:31.629Z,27.79
2017-01-02T11:40:31.693Z,27.74
2017-01-02T11:41:31.648Z,27.77
2017-01-02T11:42:31.256Z,27.7
2017-01-02T11:43:30.870Z,27.67
2017-01-02T11:44:31.718Z,27.65
2017-01-02T11:45:31.625Z,27.6
2017-01-02T11:46:31.687Z,27.54
2017-01-02T11:47:31.250Z,27.72
2017-01-02T11:48:31.654Z,27.78
2017-01-02T11:49:32.426Z,27.6
2017-01-02T11:50:31.672Z,27.62
2017-01-02T11:51:32.287Z,27.57
2017-01-02T11:52:30.899Z,27.5
2017-01-02T11:53:31.749Z,27.54
2017-01-02T11:54:31.703Z,27.54
2017-01-02T11:55:31.713Z,27.6
2017-01-02T11:56:31.720Z,27.72
2017-01-02T11:57:31.831Z,27.47
2017-01-02T11:58:31.395Z,27.37
2017-01-02T11:59:31.797Z,27.41
2017-01-02T12:00:31.358Z,27.5
2017-01-02T12:01:32.418Z,27.4
2017-01-02T12:02:32.821Z,27.49
2017-01-02T12:03:31.462Z,27.36
2017-01-02T12:04:31.440Z,27.49
2017-01-02T12:05:31.846Z,27.55
2017-01-02T12:06:31.858Z,27.59
2017-01-02T12:07:31.418Z,27.55
2017-01-02T12:08:31.478Z,27.55
2017-01-02T12:09:31.879Z,27.43
2017-01-02T12:10:31.900Z,27.41
2017-01-02T12:11:31.897Z,27.54
2017-01-02T12:12:31.119Z,27.51
2017-01-02T12:13:31.478Z,27.65
2017-01-02T12:14:31.875Z,27.62
2017-01-02T12:15:32.636Z,27.39
2017-01-02T12:16:31.496Z,27.29
2017-01-02T12:17:31.999Z,27.24
2017-01-02T12:18:31.512Z,27.29
2017-01-02T12:19:31.919Z,27.34
2017-01-02T12:20:31.579Z,27.25
2017-01-02T12:21:32.033Z,27.21
2017-01-02T12:22:32.145Z,27.21
2017-01-02T12:23:32.051Z,27.17
2017-01-02T12:24:31.220Z,27.13
2017-01-02T12:25:31.172Z,27.1
2017-01-02T12:26:31.676Z,27.04
2017-01-02T12:27:31.981Z,27.12
2017-01-02T12:29:31.602Z,27.07
2017-01-02T12:30:32.055Z,27.03
2017-01-02T12:31:32.065Z,26.95
2017-01-02T12:32:31.626Z,27.03
2017-01-02T12:33:32.529Z,27.06
2017-01-02T12:34:31.254Z,27.12
2017-01-02T12:35:32.096Z,27.22
2017-01-02T12:36:31.711Z,27.27
2017-01-02T12:37:31.349Z,27.27
2017-01-02T12:38:32.121Z,27.4
2017-01-02T12:39:32.078Z,27.41
2017-01-02T12:40:31.344Z,27.37
2017-01-02T12:41:31.807Z,27.4
2017-01-02T12:42:31.705Z,27.44
2017-01-02T12:43:31.713Z,27.47
2017-01-02T12:44:33.304Z,27.4
2017-01-02T12:45:31.781Z,27.4
2017-01-02T12:46:32.692Z,27.34
2017-01-02T12:47:32.310Z,27.31
2017-01-02T12:48:31.463Z,27.41
2017-01-02T12:49:32.159Z,27.41
2017-01-02T12:50:31.422Z,27.4
2017-01-02T12:51:31.434Z,27.28
2017-01-02T12:52:31.890Z,27.32
2017-01-02T12:53:31.845Z,27.27
2017-01-02T12:54:32.253Z,27.24
2017-01-02T12:55:31.868Z,27.29
2017-01-02T12:56:31.925Z,27.13
2017-01-02T12:57:32.828Z,27.25
2017-01-02T12:58:31.838Z,27.28